sensor_id;sensor_type;location;lat;lon;timestamp;temperature;humidity
9762;DHT22;4920;49.594;11.022;2022-08-19T00:01:57;19.50;99.90
9762;DHT22;4920;49.594;11.022;2022-08-19T00:04:30;19.50;99.90
9762;DHT22;4920;49.594;11.022;2022-08-19T00:07:02;19.40;99.90
9762;DHT22;4920;49.594;11.022;2022-08-19T00:09:31;19.40;1.00
9762;DHT22;4920;49.594;11.022;2022-08-19T00:12:00;19.40;99.90
9762;DHT22;4920;49.594;11.022;2022-08-19T00:14:29;19.50;99.90
9762;DHT22;4920;49.594;11.022;2022-08-19T00:16:59;19.50;99.90
9762;DHT22;4920;49.594;11.022;2022-08-19T00:19:27;19.50;99.90
9762;DHT22;4920;49.594;11.022;2022-08-19T00:21:56;19.50;99.90
9762;DHT22;4920;49.594;11.022;2022-08-19T00:24:26;19.50;99.90
9762;DHT22;4920;49.594;11.022;2022-08-19T00:26:56;19.50;99.90
9762;DHT22;4920;49.594;11.022;2022-08-19T00:29:44;19.50;99.90
9762;DHT22;4920;49.594;11.022;2022-08-19T00:32:18;19.50;99.90
9762;DHT22;4920;49.594;11.022;2022-08-19T00:34:47;19.40;99.90
9762;DHT22;4920;49.594;11.022;2022-08-19T00:37:15;19.40;99.90
9762;DHT22;4920;49.594;11.022;2022-08-19T00:39:46;19.40;99.90
9762;DHT22;4920;49.594;11.022;2022-08-19T00:42:15;19.40;99.90
9762;DHT22;4920;49.594;11.022;2022-08-19T00:44:44;19.30;99.90
9762;DHT22;4920;49.594;11.022;2022-08-19T00:47:13;19.30;99.90
9762;DHT22;4920;49.594;11.022;2022-08-19T00:49:46;19.30;1.00
9762;DHT22;4920;49.594;11.022;2022-08-19T00:52:22;19.30;1.00
9762;DHT22;4920;49.594;11.022;2022-08-19T00:54:53;19.30;1.00
9762;DHT22;4920;49.594;11.022;2022-08-19T00:57:27;19.30;1.00
9762;DHT22;4920;49.594;11.022;2022-08-19T00:59:58;19.30;99.90
9762;DHT22;4920;49.594;11.022;2022-08-19T01:02:30;19.40;99.90
9762;DHT22;4920;49.594;11.022;2022-08-19T01:05:00;19.40;99.90
9762;DHT22;4920;49.594;11.022;2022-08-19T01:07:29;19.50;99.90
9762;DHT22;4920;49.594;11.022;2022-08-19T01:10:09;19.50;99.90
9762;DHT22;4920;49.594;11.022;2022-08-19T01:12:38;19.60;99.90
9762;DHT22;4920;49.594;11.022;2022-08-19T01:15:09;19.60;99.90
9762;DHT22;4920;49.594;11.022;2022-08-19T01:17:39;19.60;99.90
9762;DHT22;4920;49.594;11.022;2022-08-19T01:20:11;19.60;99.90
9762;DHT22;4920;49.594;11.022;2022-08-19T01:22:45;19.60;99.90
9762;DHT22;4920;49.594;11.022;2022-08-19T01:25:16;19.70;99.90
9762;DHT22;4920;49.594;11.022;2022-08-19T01:27:47;19.70;99.90
9762;DHT22;4920;49.594;11.022;2022-08-19T01:30:21;19.70;90.70
9762;DHT22;4920;49.594;11.022;2022-08-19T01:32:51;19.70;1.00
9762;DHT22;4920;49.594;11.022;2022-08-19T01:35:21;19.70;1.00
9762;DHT22;4920;49.594;11.022;2022-08-19T01:37:54;19.70;1.00
9762;DHT22;4920;49.594;11.022;2022-08-19T01:40:28;19.80;1.00
9762;DHT22;4920;49.594;11.022;2022-08-19T01:42:57;19.80;1.00
9762;DHT22;4920;49.594;11.022;2022-08-19T01:45:28;19.80;1.00
9762;DHT22;4920;49.594;11.022;2022-08-19T01:47:57;19.80;1.00
9762;DHT22;4920;49.594;11.022;2022-08-19T01:50:29;19.80;1.00
9762;DHT22;4920;49.594;11.022;2022-08-19T01:53:00;19.80;1.00
9762;DHT22;4920;49.594;11.022;2022-08-19T01:55:35;19.80;15.50
9762;DHT22;4920;49.594;11.022;2022-08-19T01:58:11;19.80;49.80
9762;DHT22;4920;49.594;11.022;2022-08-19T02:00:41;19.80;99.90
9762;DHT22;4920;49.594;11.022;2022-08-19T02:03:09;19.70;99.90
9762;DHT22;4920;49.594;11.022;2022-08-19T02:05:38;19.70;99.90
9762;DHT22;4920;49.594;11.022;2022-08-19T02:08:10;19.80;99.90
9762;DHT22;4920;49.594;11.022;2022-08-19T02:10:40;19.80;99.90
9762;DHT22;4920;49.594;11.022;2022-08-19T02:13:10;19.80;57.20
9762;DHT22;4920;49.594;11.022;2022-08-19T02:15:38;19.80;25.60
9762;DHT22;4920;49.594;11.022;2022-08-19T02:18:07;19.80;15.10
9762;DHT22;4920;49.594;11.022;2022-08-19T02:20:37;19.80;1.00
9762;DHT22;4920;49.594;11.022;2022-08-19T02:23:07;19.80;1.00
9762;DHT22;4920;49.594;11.022;2022-08-19T02:25:45;19.80;1.00
9762;DHT22;4920;49.594;11.022;2022-08-19T02:28:14;19.80;78.80
9762;DHT22;4920;49.594;11.022;2022-08-19T02:30:47;19.80;99.90
9762;DHT22;4920;49.594;11.022;2022-08-19T02:33:16;19.80;59.00
9762;DHT22;4920;49.594;11.022;2022-08-19T02:35:45;19.80;27.70
9762;DHT22;4920;49.594;11.022;2022-08-19T02:38:14;19.80;91.40
9762;DHT22;4920;49.594;11.022;2022-08-19T02:40:58;19.80;95.10
9762;DHT22;4920;49.594;11.022;2022-08-19T02:43:29;19.80;76.00
9762;DHT22;4920;49.594;11.022;2022-08-19T02:46:01;19.70;69.20
9762;DHT22;4920;49.594;11.022;2022-08-19T02:48:30;19.70;62.60
9762;DHT22;4920;49.594;11.022;2022-08-19T02:51:00;19.80;54.50
9762;DHT22;4920;49.594;11.022;2022-08-19T02:53:28;19.80;10.30
9762;DHT22;4920;49.594;11.022;2022-08-19T02:55:58;19.80;30.10
9762;DHT22;4920;49.594;11.022;2022-08-19T02:58:27;19.80;26.20
9762;DHT22;4920;49.594;11.022;2022-08-19T03:00:56;19.80;21.70
9762;DHT22;4920;49.594;11.022;2022-08-19T03:03:25;19.70;78.80
9762;DHT22;4920;49.594;11.022;2022-08-19T03:06:04;19.80;29.50
9762;DHT22;4920;49.594;11.022;2022-08-19T03:08:32;19.80;37.90
9762;DHT22;4920;49.594;11.022;2022-08-19T03:11:03;19.80;1.00
9762;DHT22;4920;49.594;11.022;2022-08-19T03:13:32;19.90;1.00
9762;DHT22;4920;49.594;11.022;2022-08-19T03:16:05;19.90;1.00
9762;DHT22;4920;49.594;11.022;2022-08-19T03:18:33;19.90;1.00
9762;DHT22;4920;49.594;11.022;2022-08-19T03:21:02;19.90;1.00
9762;DHT22;4920;49.594;11.022;2022-08-19T03:23:31;19.90;1.00
9762;DHT22;4920;49.594;11.022;2022-08-19T03:26:04;19.90;99.90
9762;DHT22;4920;49.594;11.022;2022-08-19T03:28:43;19.90;99.90
9762;DHT22;4920;49.594;11.022;2022-08-19T03:31:19;19.90;99.90
9762;DHT22;4920;49.594;11.022;2022-08-19T03:34:10;19.90;99.90
9762;DHT22;4920;49.594;11.022;2022-08-19T03:36:39;19.90;99.90
9762;DHT22;4920;49.594;11.022;2022-08-19T03:39:09;19.90;99.90
9762;DHT22;4920;49.594;11.022;2022-08-19T03:41:41;19.90;99.90
9762;DHT22;4920;49.594;11.022;2022-08-19T03:44:12;19.90;99.90
9762;DHT22;4920;49.594;11.022;2022-08-19T03:46:45;19.90;99.90
9762;DHT22;4920;49.594;11.022;2022-08-19T03:49:14;19.90;99.90
9762;DHT22;4920;49.594;11.022;2022-08-19T03:51:45;19.80;99.90
9762;DHT22;4920;49.594;11.022;2022-08-19T03:54:17;19.90;99.90
9762;DHT22;4920;49.594;11.022;2022-08-19T03:56:49;19.80;99.90
9762;DHT22;4920;49.594;11.022;2022-08-19T03:59:21;19.90;99.90
9762;DHT22;4920;49.594;11.022;2022-08-19T04:01:52;19.80;1.00
9762;DHT22;4920;49.594;11.022;2022-08-19T04:04:21;19.80;1.00
9762;DHT22;4920;49.594;11.022;2022-08-19T04:06:50;19.80;1.00
9762;DHT22;4920;49.594;11.022;2022-08-19T04:09:19;19.70;9.30
9762;DHT22;4920;49.594;11.022;2022-08-19T04:11:51;19.70;99.90
9762;DHT22;4920;49.594;11.022;2022-08-19T04:14:22;19.70;53.20
9762;DHT22;4920;49.594;11.022;2022-08-19T04:16:52;19.70;99.90
9762;DHT22;4920;49.594;11.022;2022-08-19T04:19:20;19.70;99.90
9762;DHT22;4920;49.594;11.022;2022-08-19T04:21:52;19.70;99.90
9762;DHT22;4920;49.594;11.022;2022-08-19T04:24:22;19.70;99.90
9762;DHT22;4920;49.594;11.022;2022-08-19T04:26:52;19.70;99.90
9762;DHT22;4920;49.594;11.022;2022-08-19T04:29:22;19.60;99.90
9762;DHT22;4920;49.594;11.022;2022-08-19T04:31:53;19.70;99.90
9762;DHT22;4920;49.594;11.022;2022-08-19T04:34:25;19.70;99.90
9762;DHT22;4920;49.594;11.022;2022-08-19T04:36:57;19.70;99.90
9762;DHT22;4920;49.594;11.022;2022-08-19T04:39:28;19.70;1.00
9762;DHT22;4920;49.594;11.022;2022-08-19T04:42:13;19.70;1.00
9762;DHT22;4920;49.594;11.022;2022-08-19T04:44:59;19.70;1.00
9762;DHT22;4920;49.594;11.022;2022-08-19T04:47:27;19.70;1.00
9762;DHT22;4920;49.594;11.022;2022-08-19T04:50:18;19.70;1.00
9762;DHT22;4920;49.594;11.022;2022-08-19T04:52:46;19.70;1.00
9762;DHT22;4920;49.594;11.022;2022-08-19T04:55:16;19.70;1.00
9762;DHT22;4920;49.594;11.022;2022-08-19T04:57:46;19.70;1.00
9762;DHT22;4920;49.594;11.022;2022-08-19T05:00:15;19.70;1.00
9762;DHT22;4920;49.594;11.022;2022-08-19T05:02:44;19.70;1.00
9762;DHT22;4920;49.594;11.022;2022-08-19T05:05:12;19.80;1.00
9762;DHT22;4920;49.594;11.022;2022-08-19T05:07:41;19.80;1.00
9762;DHT22;4920;49.594;11.022;2022-08-19T05:10:10;19.80;99.90
9762;DHT22;4920;49.594;11.022;2022-08-19T05:12:38;19.80;99.90
9762;DHT22;4920;49.594;11.022;2022-08-19T05:15:10;19.90;99.90
9762;DHT22;4920;49.594;11.022;2022-08-19T05:17:38;19.90;99.90
9762;DHT22;4920;49.594;11.022;2022-08-19T05:20:28;20.00;99.90
9762;DHT22;4920;49.594;11.022;2022-08-19T05:23:14;20.00;1.00
9762;DHT22;4920;49.594;11.022;2022-08-19T05:25:49;20.10;1.00
9762;DHT22;4920;49.594;11.022;2022-08-19T05:28:19;20.10;1.00
9762;DHT22;4920;49.594;11.022;2022-08-19T05:30:49;20.10;99.90
9762;DHT22;4920;49.594;11.022;2022-08-19T05:33:18;20.10;99.90
9762;DHT22;4920;49.594;11.022;2022-08-19T05:35:47;20.20;99.90
9762;DHT22;4920;49.594;11.022;2022-08-19T05:38:17;20.20;1.00
9762;DHT22;4920;49.594;11.022;2022-08-19T05:40:46;20.20;99.90
9762;DHT22;4920;49.594;11.022;2022-08-19T05:43:16;20.10;99.90
9762;DHT22;4920;49.594;11.022;2022-08-19T05:45:45;20.20;99.90
9762;DHT22;4920;49.594;11.022;2022-08-19T05:48:15;20.20;99.90
9762;DHT22;4920;49.594;11.022;2022-08-19T05:50:44;20.30;1.00
9762;DHT22;4920;49.594;11.022;2022-08-19T05:53:13;20.40;1.00
9762;DHT22;4920;49.594;11.022;2022-08-19T05:55:43;20.40;1.00
9762;DHT22;4920;49.594;11.022;2022-08-19T05:58:12;20.50;99.90
9762;DHT22;4920;49.594;11.022;2022-08-19T06:00:43;20.60;57.20
9762;DHT22;4920;49.594;11.022;2022-08-19T06:03:12;20.60;1.00
9762;DHT22;4920;49.594;11.022;2022-08-19T06:05:42;20.60;1.00
9762;DHT22;4920;49.594;11.022;2022-08-19T06:08:19;20.70;93.20
9762;DHT22;4920;49.594;11.022;2022-08-19T06:11:15;20.80;1.00
9762;DHT22;4920;49.594;11.022;2022-08-19T06:13:45;20.90;1.00
9762;DHT22;4920;49.594;11.022;2022-08-19T06:16:26;21.00;1.00
9762;DHT22;4920;49.594;11.022;2022-08-19T06:18:56;21.20;1.00
9762;DHT22;4920;49.594;11.022;2022-08-19T06:21:28;21.30;59.80
9762;DHT22;4920;49.594;11.022;2022-08-19T06:23:57;21.50;99.90
9762;DHT22;4920;49.594;11.022;2022-08-19T06:26:26;21.60;1.00
9762;DHT22;4920;49.594;11.022;2022-08-19T06:28:55;21.70;99.90
9762;DHT22;4920;49.594;11.022;2022-08-19T06:31:25;21.80;1.00
9762;DHT22;4920;49.594;11.022;2022-08-19T06:33:54;21.80;7.50
9762;DHT22;4920;49.594;11.022;2022-08-19T06:36:27;21.80;1.00
9762;DHT22;4920;49.594;11.022;2022-08-19T06:38:59;21.90;1.00
9762;DHT22;4920;49.594;11.022;2022-08-19T06:41:28;21.90;1.00
9762;DHT22;4920;49.594;11.022;2022-08-19T06:43:57;21.80;1.00
9762;DHT22;4920;49.594;11.022;2022-08-19T06:46:26;21.90;1.00
9762;DHT22;4920;49.594;11.022;2022-08-19T06:48:54;22.00;1.00
9762;DHT22;4920;49.594;11.022;2022-08-19T06:51:23;22.10;99.90
9762;DHT22;4920;49.594;11.022;2022-08-19T06:53:59;22.30;99.90
9762;DHT22;4920;49.594;11.022;2022-08-19T06:56:30;22.40;1.00
9762;DHT22;4920;49.594;11.022;2022-08-19T06:59:02;22.70;1.00
9762;DHT22;4920;49.594;11.022;2022-08-19T07:01:35;23.10;99.90
9762;DHT22;4920;49.594;11.022;2022-08-19T07:04:05;23.20;36.40
9762;DHT22;4920;49.594;11.022;2022-08-19T07:06:38;23.40;1.00
9762;DHT22;4920;49.594;11.022;2022-08-19T07:09:15;23.40;1.00
9762;DHT22;4920;49.594;11.022;2022-08-19T07:11:46;23.50;1.00
9762;DHT22;4920;49.594;11.022;2022-08-19T07:14:16;23.50;1.00
9762;DHT22;4920;49.594;11.022;2022-08-19T07:16:47;23.60;1.00
9762;DHT22;4920;49.594;11.022;2022-08-19T07:19:18;23.60;1.00
9762;DHT22;4920;49.594;11.022;2022-08-19T07:21:47;23.70;99.90
9762;DHT22;4920;49.594;11.022;2022-08-19T07:24:18;23.70;99.90
9762;DHT22;4920;49.594;11.022;2022-08-19T07:26:47;23.60;99.90
9762;DHT22;4920;49.594;11.022;2022-08-19T07:29:19;23.60;99.90
9762;DHT22;4920;49.594;11.022;2022-08-19T07:31:52;23.80;99.90
9762;DHT22;4920;49.594;11.022;2022-08-19T07:34:23;24.00;99.90
9762;DHT22;4920;49.594;11.022;2022-08-19T07:36:52;24.10;99.90
9762;DHT22;4920;49.594;11.022;2022-08-19T07:39:24;24.20;99.90
9762;DHT22;4920;49.594;11.022;2022-08-19T07:41:54;24.30;99.90
9762;DHT22;4920;49.594;11.022;2022-08-19T07:44:23;24.30;85.60
9762;DHT22;4920;49.594;11.022;2022-08-19T07:46:54;24.30;35.00
9762;DHT22;4920;49.594;11.022;2022-08-19T07:49:23;24.30;6.60
9762;DHT22;4920;49.594;11.022;2022-08-19T07:51:53;24.30;1.00
9762;DHT22;4920;49.594;11.022;2022-08-19T07:54:25;24.20;1.00
9762;DHT22;4920;49.594;11.022;2022-08-19T07:56:57;24.10;1.00
9762;DHT22;4920;49.594;11.022;2022-08-19T07:59:28;23.90;1.00
9762;DHT22;4920;49.594;11.022;2022-08-19T08:01:57;23.60;1.00
9762;DHT22;4920;49.594;11.022;2022-08-19T08:04:27;23.40;1.00
9762;DHT22;4920;49.594;11.022;2022-08-19T08:07:13;23.10;1.00
9762;DHT22;4920;49.594;11.022;2022-08-19T08:10:04;22.90;1.00
9762;DHT22;4920;49.594;11.022;2022-08-19T08:12:46;22.80;45.20
9762;DHT22;4920;49.594;11.022;2022-08-19T08:15:34;22.70;90.80
9762;DHT22;4920;49.594;11.022;2022-08-19T08:18:09;22.70;99.90
9762;DHT22;4920;49.594;11.022;2022-08-19T08:20:38;22.70;99.90
9762;DHT22;4920;49.594;11.022;2022-08-19T08:23:06;22.70;99.90
9762;DHT22;4920;49.594;11.022;2022-08-19T08:25:56;22.90;99.90
9762;DHT22;4920;49.594;11.022;2022-08-19T08:28:26;23.20;99.90
9762;DHT22;4920;49.594;11.022;2022-08-19T08:30:57;23.30;99.90
9762;DHT22;4920;49.594;11.022;2022-08-19T08:33:28;23.50;82.20
9762;DHT22;4920;49.594;11.022;2022-08-19T08:36:01;23.60;28.00
9762;DHT22;4920;49.594;11.022;2022-08-19T08:38:31;23.80;7.80
9762;DHT22;4920;49.594;11.022;2022-08-19T08:41:14;24.00;1.00
9762;DHT22;4920;49.594;11.022;2022-08-19T08:43:48;24.00;1.00
9762;DHT22;4920;49.594;11.022;2022-08-19T08:46:22;23.90;1.00
9762;DHT22;4920;49.594;11.022;2022-08-19T08:49:02;23.80;1.00
9762;DHT22;4920;49.594;11.022;2022-08-19T08:51:38;23.70;1.00
9762;DHT22;4920;49.594;11.022;2022-08-19T08:54:12;23.90;1.00
9762;DHT22;4920;49.594;11.022;2022-08-19T08:56:43;24.10;1.00
9762;DHT22;4920;49.594;11.022;2022-08-19T08:59:18;24.30;1.00
9762;DHT22;4920;49.594;11.022;2022-08-19T09:01:49;24.50;1.00
9762;DHT22;4920;49.594;11.022;2022-08-19T09:04:18;24.60;1.00
9762;DHT22;4920;49.594;11.022;2022-08-19T09:06:54;24.60;1.00
9762;DHT22;4920;49.594;11.022;2022-08-19T09:09:28;24.50;1.00
9762;DHT22;4920;49.594;11.022;2022-08-19T09:12:06;24.40;1.00
9762;DHT22;4920;49.594;11.022;2022-08-19T09:14:46;24.10;1.00
9762;DHT22;4920;49.594;11.022;2022-08-19T09:17:20;23.90;1.00
9762;DHT22;4920;49.594;11.022;2022-08-19T09:20:00;23.80;1.00
9762;DHT22;4920;49.594;11.022;2022-08-19T09:22:35;23.70;1.00
9762;DHT22;4920;49.594;11.022;2022-08-19T09:25:07;23.60;1.00
9762;DHT22;4920;49.594;11.022;2022-08-19T09:27:39;23.60;1.00
9762;DHT22;4920;49.594;11.022;2022-08-19T09:30:13;23.60;1.00
9762;DHT22;4920;49.594;11.022;2022-08-19T09:32:43;23.60;1.00
9762;DHT22;4920;49.594;11.022;2022-08-19T09:35:13;23.50;1.00
9762;DHT22;4920;49.594;11.022;2022-08-19T09:37:42;23.60;1.00
9762;DHT22;4920;49.594;11.022;2022-08-19T09:40:12;23.50;1.00
9762;DHT22;4920;49.594;11.022;2022-08-19T09:42:43;23.40;1.00
9762;DHT22;4920;49.594;11.022;2022-08-19T09:45:18;23.30;1.00
9762;DHT22;4920;49.594;11.022;2022-08-19T09:47:47;23.10;1.00
9762;DHT22;4920;49.594;11.022;2022-08-19T09:50:16;23.00;1.00
9762;DHT22;4920;49.594;11.022;2022-08-19T09:52:45;22.90;1.00
9762;DHT22;4920;49.594;11.022;2022-08-19T09:55:24;22.80;1.00
9762;DHT22;4920;49.594;11.022;2022-08-19T09:58:01;22.80;1.00
9762;DHT22;4920;49.594;11.022;2022-08-19T10:00:30;22.90;1.00
9762;DHT22;4920;49.594;11.022;2022-08-19T10:02:59;22.90;1.00
9762;DHT22;4920;49.594;11.022;2022-08-19T10:05:29;22.90;1.00
9762;DHT22;4920;49.594;11.022;2022-08-19T10:08:22;23.00;1.00
9762;DHT22;4920;49.594;11.022;2022-08-19T10:10:52;23.10;1.00
9762;DHT22;4920;49.594;11.022;2022-08-19T10:13:25;23.10;1.00
9762;DHT22;4920;49.594;11.022;2022-08-19T10:16:02;23.10;1.00
9762;DHT22;4920;49.594;11.022;2022-08-19T10:18:32;23.10;1.00
9762;DHT22;4920;49.594;11.022;2022-08-19T10:21:05;23.10;1.00
9762;DHT22;4920;49.594;11.022;2022-08-19T10:23:38;23.10;1.00
9762;DHT22;4920;49.594;11.022;2022-08-19T10:26:07;23.30;1.00
9762;DHT22;4920;49.594;11.022;2022-08-19T10:28:37;23.50;1.00
9762;DHT22;4920;49.594;11.022;2022-08-19T10:31:11;23.70;1.00
9762;DHT22;4920;49.594;11.022;2022-08-19T10:33:40;23.80;1.00
9762;DHT22;4920;49.594;11.022;2022-08-19T10:36:22;24.00;1.00
9762;DHT22;4920;49.594;11.022;2022-08-19T10:38:52;24.10;1.00
9762;DHT22;4920;49.594;11.022;2022-08-19T10:41:26;24.20;1.00
9762;DHT22;4920;49.594;11.022;2022-08-19T10:43:58;24.30;1.00
9762;DHT22;4920;49.594;11.022;2022-08-19T10:46:31;24.30;1.00
9762;DHT22;4920;49.594;11.022;2022-08-19T10:49:02;24.40;1.00
9762;DHT22;4920;49.594;11.022;2022-08-19T10:51:31;24.30;1.00
9762;DHT22;4920;49.594;11.022;2022-08-19T10:54:17;24.20;1.00
9762;DHT22;4920;49.594;11.022;2022-08-19T10:56:57;24.10;1.00
9762;DHT22;4920;49.594;11.022;2022-08-19T10:59:28;24.10;1.00
9762;DHT22;4920;49.594;11.022;2022-08-19T11:02:04;24.00;1.00
9762;DHT22;4920;49.594;11.022;2022-08-19T11:04:33;24.00;1.00
9762;DHT22;4920;49.594;11.022;2022-08-19T11:07:02;24.00;1.00
9762;DHT22;4920;49.594;11.022;2022-08-19T11:09:35;24.00;1.00
9762;DHT22;4920;49.594;11.022;2022-08-19T11:12:05;24.00;1.00
9762;DHT22;4920;49.594;11.022;2022-08-19T11:14:36;24.00;1.00
9762;DHT22;4920;49.594;11.022;2022-08-19T11:17:05;24.00;1.00
9762;DHT22;4920;49.594;11.022;2022-08-19T11:19:34;23.90;1.00
9762;DHT22;4920;49.594;11.022;2022-08-19T11:22:03;23.90;1.00
9762;DHT22;4920;49.594;11.022;2022-08-19T11:24:35;23.80;1.00
9762;DHT22;4920;49.594;11.022;2022-08-19T11:27:07;23.70;1.00
9762;DHT22;4920;49.594;11.022;2022-08-19T11:29:39;23.60;1.00
9762;DHT22;4920;49.594;11.022;2022-08-19T11:32:09;23.50;1.00
9762;DHT22;4920;49.594;11.022;2022-08-19T11:34:38;23.50;1.00
9762;DHT22;4920;49.594;11.022;2022-08-19T11:37:07;23.40;1.00
9762;DHT22;4920;49.594;11.022;2022-08-19T11:39:36;23.30;1.00
9762;DHT22;4920;49.594;11.022;2022-08-19T11:42:06;23.20;1.00
9762;DHT22;4920;49.594;11.022;2022-08-19T11:44:50;23.10;1.00
9762;DHT22;4920;49.594;11.022;2022-08-19T11:47:19;22.90;1.00
9762;DHT22;4920;49.594;11.022;2022-08-19T11:49:48;22.90;1.00
9762;DHT22;4920;49.594;11.022;2022-08-19T11:52:18;22.80;1.00
9762;DHT22;4920;49.594;11.022;2022-08-19T11:54:46;22.80;1.00
9762;DHT22;4920;49.594;11.022;2022-08-19T11:57:15;22.70;1.00
9762;DHT22;4920;49.594;11.022;2022-08-19T11:59:50;22.70;1.00
9762;DHT22;4920;49.594;11.022;2022-08-19T12:02:18;22.60;99.90
9762;DHT22;4920;49.594;11.022;2022-08-19T12:04:48;22.30;43.50
9762;DHT22;4920;49.594;11.022;2022-08-19T12:07:17;21.90;1.00
9762;DHT22;4920;49.594;11.022;2022-08-19T12:09:45;21.50;1.00
9762;DHT22;4920;49.594;11.022;2022-08-19T12:12:15;21.20;1.00
9762;DHT22;4920;49.594;11.022;2022-08-19T12:14:43;20.90;1.00
9762;DHT22;4920;49.594;11.022;2022-08-19T12:17:14;20.70;99.90
9762;DHT22;4920;49.594;11.022;2022-08-19T12:19:43;20.50;99.90
9762;DHT22;4920;49.594;11.022;2022-08-19T12:22:12;20.40;1.00
9762;DHT22;4920;49.594;11.022;2022-08-19T12:24:40;20.30;1.00
9762;DHT22;4920;49.594;11.022;2022-08-19T12:27:09;20.30;1.00
9762;DHT22;4920;49.594;11.022;2022-08-19T12:29:39;20.30;1.00
9762;DHT22;4920;49.594;11.022;2022-08-19T12:32:08;20.40;36.80
9762;DHT22;4920;49.594;11.022;2022-08-19T12:34:39;20.50;1.00
9762;DHT22;4920;49.594;11.022;2022-08-19T12:37:08;20.60;1.00
9762;DHT22;4920;49.594;11.022;2022-08-19T12:39:40;20.60;1.00
9762;DHT22;4920;49.594;11.022;2022-08-19T12:42:10;20.70;1.00
9762;DHT22;4920;49.594;11.022;2022-08-19T12:44:41;20.70;1.00
9762;DHT22;4920;49.594;11.022;2022-08-19T12:47:12;20.80;1.00
9762;DHT22;4920;49.594;11.022;2022-08-19T12:49:43;20.80;99.90
9762;DHT22;4920;49.594;11.022;2022-08-19T12:52:23;20.80;99.90
9762;DHT22;4920;49.594;11.022;2022-08-19T12:54:52;20.80;99.90
9762;DHT22;4920;49.594;11.022;2022-08-19T12:57:22;20.80;1.00
9762;DHT22;4920;49.594;11.022;2022-08-19T13:00:00;20.90;1.00
9762;DHT22;4920;49.594;11.022;2022-08-19T13:02:31;20.90;1.00
9762;DHT22;4920;49.594;11.022;2022-08-19T13:05:09;20.90;1.00
9762;DHT22;4920;49.594;11.022;2022-08-19T13:07:39;20.90;1.00
9762;DHT22;4920;49.594;11.022;2022-08-19T13:10:10;20.80;96.40
9762;DHT22;4920;49.594;11.022;2022-08-19T13:12:39;20.70;99.90
9762;DHT22;4920;49.594;11.022;2022-08-19T13:15:09;20.60;99.90
9762;DHT22;4920;49.594;11.022;2022-08-19T13:17:41;20.60;1.00
9762;DHT22;4920;49.594;11.022;2022-08-19T13:20:11;20.50;1.00
9762;DHT22;4920;49.594;11.022;2022-08-19T13:22:40;20.50;1.00
9762;DHT22;4920;49.594;11.022;2022-08-19T13:25:09;20.50;1.00
9762;DHT22;4920;49.594;11.022;2022-08-19T13:27:39;20.60;1.00
9762;DHT22;4920;49.594;11.022;2022-08-19T13:30:09;20.60;1.00
9762;DHT22;4920;49.594;11.022;2022-08-19T13:32:55;20.60;1.00
9762;DHT22;4920;49.594;11.022;2022-08-19T13:35:46;20.60;1.00
9762;DHT22;4920;49.594;11.022;2022-08-19T13:38:17;20.60;1.00
9762;DHT22;4920;49.594;11.022;2022-08-19T13:40:48;20.60;1.00
9762;DHT22;4920;49.594;11.022;2022-08-19T13:43:18;20.60;1.00
9762;DHT22;4920;49.594;11.022;2022-08-19T13:45:51;20.70;1.00
9762;DHT22;4920;49.594;11.022;2022-08-19T13:48:23;20.70;1.00
9762;DHT22;4920;49.594;11.022;2022-08-19T13:50:54;20.80;1.00
9762;DHT22;4920;49.594;11.022;2022-08-19T13:53:23;20.70;1.00
9762;DHT22;4920;49.594;11.022;2022-08-19T13:55:52;20.70;1.00
9762;DHT22;4920;49.594;11.022;2022-08-19T13:58:21;20.70;1.00
9762;DHT22;4920;49.594;11.022;2022-08-19T14:00:50;20.60;1.00
9762;DHT22;4920;49.594;11.022;2022-08-19T14:03:19;20.60;1.00
9762;DHT22;4920;49.594;11.022;2022-08-19T14:05:48;20.50;1.00
9762;DHT22;4920;49.594;11.022;2022-08-19T14:08:18;20.40;1.00
9762;DHT22;4920;49.594;11.022;2022-08-19T14:10:47;20.30;1.00
9762;DHT22;4920;49.594;11.022;2022-08-19T14:13:19;20.30;1.00
9762;DHT22;4920;49.594;11.022;2022-08-19T14:15:49;20.20;1.00
9762;DHT22;4920;49.594;11.022;2022-08-19T14:18:18;20.20;1.00
9762;DHT22;4920;49.594;11.022;2022-08-19T14:20:46;20.20;1.00
9762;DHT22;4920;49.594;11.022;2022-08-19T14:23:16;20.20;1.00
9762;DHT22;4920;49.594;11.022;2022-08-19T14:25:45;20.20;1.00
9762;DHT22;4920;49.594;11.022;2022-08-19T14:28:13;20.20;1.00
9762;DHT22;4920;49.594;11.022;2022-08-19T14:30:43;20.30;1.00
9762;DHT22;4920;49.594;11.022;2022-08-19T14:33:12;20.40;1.00
9762;DHT22;4920;49.594;11.022;2022-08-19T14:35:41;20.40;1.00
9762;DHT22;4920;49.594;11.022;2022-08-19T14:38:17;20.50;1.00
9762;DHT22;4920;49.594;11.022;2022-08-19T14:41:06;20.50;99.90
9762;DHT22;4920;49.594;11.022;2022-08-19T14:43:35;20.50;99.90
9762;DHT22;4920;49.594;11.022;2022-08-19T14:46:05;20.60;99.90
9762;DHT22;4920;49.594;11.022;2022-08-19T14:48:36;20.50;99.90
9762;DHT22;4920;49.594;11.022;2022-08-19T14:51:08;20.50;99.90
9762;DHT22;4920;49.594;11.022;2022-08-19T14:53:41;20.40;99.90
9762;DHT22;4920;49.594;11.022;2022-08-19T14:56:14;20.30;1.00
9762;DHT22;4920;49.594;11.022;2022-08-19T14:58:43;20.20;1.00
9762;DHT22;4920;49.594;11.022;2022-08-19T15:01:13;20.10;1.00
9762;DHT22;4920;49.594;11.022;2022-08-19T15:03:41;20.10;1.00
9762;DHT22;4920;49.594;11.022;2022-08-19T15:06:10;20.00;1.00
9762;DHT22;4920;49.594;11.022;2022-08-19T15:08:41;20.00;1.00
9762;DHT22;4920;49.594;11.022;2022-08-19T15:11:14;20.00;1.00
9762;DHT22;4920;49.594;11.022;2022-08-19T15:13:44;20.00;1.00
9762;DHT22;4920;49.594;11.022;2022-08-19T15:16:14;19.90;1.00
9762;DHT22;4920;49.594;11.022;2022-08-19T15:18:46;19.80;1.00
9762;DHT22;4920;49.594;11.022;2022-08-19T15:21:17;19.80;1.00
9762;DHT22;4920;49.594;11.022;2022-08-19T15:23:56;19.80;1.00
9762;DHT22;4920;49.594;11.022;2022-08-19T15:26:24;19.70;1.00
9762;DHT22;4920;49.594;11.022;2022-08-19T15:28:54;19.70;1.00
9762;DHT22;4920;49.594;11.022;2022-08-19T15:31:23;19.70;1.00
9762;DHT22;4920;49.594;11.022;2022-08-19T15:33:55;19.60;1.00
9762;DHT22;4920;49.594;11.022;2022-08-19T15:36:25;19.60;1.00
9762;DHT22;4920;49.594;11.022;2022-08-19T15:38:56;19.50;1.00
9762;DHT22;4920;49.594;11.022;2022-08-19T15:41:27;19.50;1.00
9762;DHT22;4920;49.594;11.022;2022-08-19T15:43:59;19.40;1.00
9762;DHT22;4920;49.594;11.022;2022-08-19T15:46:32;19.40;1.00
9762;DHT22;4920;49.594;11.022;2022-08-19T15:49:01;19.30;1.00
9762;DHT22;4920;49.594;11.022;2022-08-19T15:51:33;19.30;1.00
9762;DHT22;4920;49.594;11.022;2022-08-19T15:54:05;19.20;1.00
9762;DHT22;4920;49.594;11.022;2022-08-19T15:56:34;19.20;6.30
9762;DHT22;4920;49.594;11.022;2022-08-19T15:59:24;19.10;13.80
9762;DHT22;4920;49.594;11.022;2022-08-19T16:02:15;19.00;19.90
9762;DHT22;4920;49.594;11.022;2022-08-19T16:05:05;19.00;23.50
9762;DHT22;4920;49.594;11.022;2022-08-19T16:07:52;18.90;28.20
9762;DHT22;4920;49.594;11.022;2022-08-19T16:10:23;18.80;29.20
9762;DHT22;4920;49.594;11.022;2022-08-19T16:12:54;18.80;45.00
9762;DHT22;4920;49.594;11.022;2022-08-19T16:15:24;18.80;54.30
9762;DHT22;4920;49.594;11.022;2022-08-19T16:17:54;18.70;63.60
9762;DHT22;4920;49.594;11.022;2022-08-19T16:20:24;18.70;73.70
9762;DHT22;4920;49.594;11.022;2022-08-19T16:22:54;18.60;81.60
9762;DHT22;4920;49.594;11.022;2022-08-19T16:25:26;18.60;83.30